sensor_id;sensor_type;location;lat;lon;timestamp;temperature;humidity
73833;SHT30;62179;48.444;-4.464;2023-02-01T00:00:13;10.65;70.09
73833;SHT30;62179;48.444;-4.464;2023-02-01T00:02:38;10.61;69.22
73833;SHT30;62179;48.444;-4.464;2023-02-01T00:05:10;10.61;68.96
73833;SHT30;62179;48.444;-4.464;2023-02-01T00:07:36;10.58;69.27
73833;SHT30;62179;48.444;-4.464;2023-02-01T00:10:03;10.56;68.37
73833;SHT30;62179;48.444;-4.464;2023-02-01T00:12:30;10.56;69.06
73833;SHT30;62179;48.444;-4.464;2023-02-01T00:14:55;10.58;69.27
73833;SHT30;62179;48.444;-4.464;2023-02-01T00:17:21;10.56;69.34
73833;SHT30;62179;48.444;-4.464;2023-02-01T00:19:46;10.58;69.21
73833;SHT30;62179;48.444;-4.464;2023-02-01T00:22:12;10.56;69.33
73833;SHT30;62179;48.444;-4.464;2023-02-01T00:24:37;10.52;69.90
73833;SHT30;62179;48.444;-4.464;2023-02-01T00:27:02;10.52;69.62
73833;SHT30;62179;48.444;-4.464;2023-02-01T00:29:29;10.52;70.00
73833;SHT30;62179;48.444;-4.464;2023-02-01T00:31:54;10.52;70.65
73833;SHT30;62179;48.444;-4.464;2023-02-01T00:34:20;10.53;70.39
73833;SHT30;62179;48.444;-4.464;2023-02-01T00:36:46;10.53;69.84
73833;SHT30;62179;48.444;-4.464;2023-02-01T00:39:12;10.56;70.91
73833;SHT30;62179;48.444;-4.464;2023-02-01T00:41:38;10.53;71.39
73833;SHT30;62179;48.444;-4.464;2023-02-01T00:44:04;10.55;71.02
73833;SHT30;62179;48.444;-4.464;2023-02-01T00:46:30;10.55;70.99
73833;SHT30;62179;48.444;-4.464;2023-02-01T00:48:55;10.52;70.69
73833;SHT30;62179;48.444;-4.464;2023-02-01T00:51:24;10.51;71.16
73833;SHT30;62179;48.444;-4.464;2023-02-01T00:53:50;10.51;70.34
73833;SHT30;62179;48.444;-4.464;2023-02-01T00:56:16;10.49;70.75
73833;SHT30;62179;48.444;-4.464;2023-02-01T00:58:42;10.51;70.20
73833;SHT30;62179;48.444;-4.464;2023-02-01T01:03:37;10.49;71.33
73833;SHT30;62179;48.444;-4.464;2023-02-01T01:06:05;10.49;71.30
73833;SHT30;62179;48.444;-4.464;2023-02-01T01:08:32;10.49;70.64
73833;SHT30;62179;48.444;-4.464;2023-02-01T01:10:58;10.51;70.53
73833;SHT30;62179;48.444;-4.464;2023-02-01T01:13:24;10.52;70.63
73833;SHT30;62179;48.444;-4.464;2023-02-01T01:15:50;10.53;71.00
73833;SHT30;62179;48.444;-4.464;2023-02-01T01:18:15;10.52;71.01
73833;SHT30;62179;48.444;-4.464;2023-02-01T01:20:41;10.53;70.58
73833;SHT30;62179;48.444;-4.464;2023-02-01T01:23:08;10.55;71.10
73833;SHT30;62179;48.444;-4.464;2023-02-01T01:25:38;10.56;70.61
73833;SHT30;62179;48.444;-4.464;2023-02-01T01:28:03;10.58;70.82
73833;SHT30;62179;48.444;-4.464;2023-02-01T01:30:29;10.58;70.32
73833;SHT30;62179;48.444;-4.464;2023-02-01T01:32:54;10.58;70.52
73833;SHT30;62179;48.444;-4.464;2023-02-01T01:35:19;10.56;70.84
73833;SHT30;62179;48.444;-4.464;2023-02-01T01:37:45;10.59;70.74
73833;SHT30;62179;48.444;-4.464;2023-02-01T01:40:11;10.61;70.71
73833;SHT30;62179;48.444;-4.464;2023-02-01T01:42:37;10.62;70.72
73833;SHT30;62179;48.444;-4.464;2023-02-01T01:45:06;10.62;70.54
73833;SHT30;62179;48.444;-4.464;2023-02-01T01:47:37;10.62;70.69
73833;SHT30;62179;48.444;-4.464;2023-02-01T01:50:06;10.65;70.75
73833;SHT30;62179;48.444;-4.464;2023-02-01T01:52:33;10.63;70.88
73833;SHT30;62179;48.444;-4.464;2023-02-01T01:54:59;10.65;70.84
73833;SHT30;62179;48.444;-4.464;2023-02-01T01:57:29;10.65;70.13
73833;SHT30;62179;48.444;-4.464;2023-02-01T02:00:05;10.66;70.02
73833;SHT30;62179;48.444;-4.464;2023-02-01T02:02:33;10.65;69.96
73833;SHT30;62179;48.444;-4.464;2023-02-01T02:04:58;10.62;70.14
73833;SHT30;62179;48.444;-4.464;2023-02-01T02:07:35;10.62;69.46
73833;SHT30;62179;48.444;-4.464;2023-02-01T02:10:04;10.61;69.68
73833;SHT30;62179;48.444;-4.464;2023-02-01T02:12:31;10.61;69.30
73833;SHT30;62179;48.444;-4.464;2023-02-01T02:14:57;10.61;69.43
73833;SHT30;62179;48.444;-4.464;2023-02-01T02:28:35;10.59;69.06
73833;SHT30;62179;48.444;-4.464;2023-02-01T02:40:03;10.59;69.55
73833;SHT30;62179;48.444;-4.464;2023-02-01T02:42:39;10.58;69.35
73833;SHT30;62179;48.444;-4.464;2023-02-01T02:48:38;10.61;69.62
73833;SHT30;62179;48.444;-4.464;2023-02-01T02:51:27;10.61;69.71
73833;SHT30;62179;48.444;-4.464;2023-02-01T02:54:20;10.62;69.38
73833;SHT30;62179;48.444;-4.464;2023-02-01T02:57:07;10.61;69.69
73833;SHT30;62179;48.444;-4.464;2023-02-01T02:59:52;10.59;69.71
73833;SHT30;62179;48.444;-4.464;2023-02-01T03:02:37;10.58;68.76
73833;SHT30;62179;48.444;-4.464;2023-02-01T03:05:22;10.58;70.13
73833;SHT30;62179;48.444;-4.464;2023-02-01T03:08:00;10.59;69.30
73833;SHT30;62179;48.444;-4.464;2023-02-01T03:10:49;10.58;69.54
73833;SHT30;62179;48.444;-4.464;2023-02-01T03:13:28;10.56;69.60
73833;SHT30;62179;48.444;-4.464;2023-02-01T03:16:07;10.58;69.68
73833;SHT30;62179;48.444;-4.464;2023-02-01T03:21:42;10.59;69.72
73833;SHT30;62179;48.444;-4.464;2023-02-01T03:24:14;10.58;69.03
73833;SHT30;62179;48.444;-4.464;2023-02-01T03:26:47;10.56;69.40
73833;SHT30;62179;48.444;-4.464;2023-02-01T03:29:23;10.58;69.40
73833;SHT30;62179;48.444;-4.464;2023-02-01T03:31:50;10.58;69.16
73833;SHT30;62179;48.444;-4.464;2023-02-01T03:34:16;10.61;69.31
73833;SHT30;62179;48.444;-4.464;2023-02-01T03:36:58;10.62;69.76
73833;SHT30;62179;48.444;-4.464;2023-02-01T03:42:19;10.61;69.41
73833;SHT30;62179;48.444;-4.464;2023-02-01T03:44:57;10.63;69.14
73833;SHT30;62179;48.444;-4.464;2023-02-01T03:47:29;10.62;69.43
73833;SHT30;62179;48.444;-4.464;2023-02-01T03:49:59;10.59;69.61
73833;SHT30;62179;48.444;-4.464;2023-02-01T03:52:30;10.59;69.53
73833;SHT30;62179;48.444;-4.464;2023-02-01T03:54:58;10.58;69.82
73833;SHT30;62179;48.444;-4.464;2023-02-01T03:57:30;10.58;69.34
73833;SHT30;62179;48.444;-4.464;2023-02-01T04:00:06;10.53;69.27
73833;SHT30;62179;48.444;-4.464;2023-02-01T04:02:33;10.56;69.16
73833;SHT30;62179;48.444;-4.464;2023-02-01T13:16:15;13.16;58.18
73833;SHT30;62179;48.444;-4.464;2023-02-01T13:18:43;13.14;57.39
73833;SHT30;62179;48.444;-4.464;2023-02-01T13:21:16;13.14;58.30
73833;SHT30;62179;48.444;-4.464;2023-02-01T13:23:45;13.16;58.48
73833;SHT30;62179;48.444;-4.464;2023-02-01T13:26:12;13.18;58.75
73833;SHT30;62179;48.444;-4.464;2023-02-01T13:45:13;13.12;56.48
73833;SHT30;62179;48.444;-4.464;2023-02-01T13:47:39;13.07;56.95
73833;SHT30;62179;48.444;-4.464;2023-02-01T13:50:21;13.08;57.31
73833;SHT30;62179;48.444;-4.464;2023-02-01T13:53:00;13.05;57.79
73833;SHT30;62179;48.444;-4.464;2023-02-01T13:55:33;13.02;57.41
73833;SHT30;62179;48.444;-4.464;2023-02-01T13:58:03;13.02;57.56
73833;SHT30;62179;48.444;-4.464;2023-02-01T14:00:38;12.98;57.89
73833;SHT30;62179;48.444;-4.464;2023-02-01T14:04:44;12.99;58.90
73833;SHT30;62179;48.444;-4.464;2023-02-01T14:06:03;12.99;58.54
73833;SHT30;62179;48.444;-4.464;2023-02-01T14:08:41;12.99;58.72
73833;SHT30;62179;48.444;-4.464;2023-02-01T14:16:43;13.04;58.28
73833;SHT30;62179;48.444;-4.464;2023-02-01T14:19:27;13.07;57.99
73833;SHT30;62179;48.444;-4.464;2023-02-01T14:21:57;13.09;58.24
73833;SHT30;62179;48.444;-4.464;2023-02-01T14:24:27;13.12;58.42
73833;SHT30;62179;48.444;-4.464;2023-02-01T14:26:55;13.12;58.35
73833;SHT30;62179;48.444;-4.464;2023-02-01T14:29:36;13.14;57.61
73833;SHT30;62179;48.444;-4.464;2023-02-01T14:34:50;13.15;58.16
73833;SHT30;62179;48.444;-4.464;2023-02-01T14:39:55;13.15;57.23
73833;SHT30;62179;48.444;-4.464;2023-02-01T16:23:36;12.18;60.86
73833;SHT30;62179;48.444;-4.464;2023-02-01T16:26:03;12.16;60.98
73833;SHT30;62179;48.444;-4.464;2023-02-01T16:28:29;12.12;61.13
73833;SHT30;62179;48.444;-4.464;2023-02-01T16:30:54;12.13;61.31
73833;SHT30;62179;48.444;-4.464;2023-02-01T16:33:21;12.08;61.15
73833;SHT30;62179;48.444;-4.464;2023-02-01T16:35:48;12.06;60.89
73833;SHT30;62179;48.444;-4.464;2023-02-01T16:38:16;12.03;61.25
73833;SHT30;62179;48.444;-4.464;2023-02-01T16:40:45;11.99;61.61
73833;SHT30;62179;48.444;-4.464;2023-02-01T16:43:15;11.99;61.37
73833;SHT30;62179;48.444;-4.464;2023-02-01T16:45:42;11.95;61.63
73833;SHT30;62179;48.444;-4.464;2023-02-01T16:50:45;11.90;62.25
73833;SHT30;62179;48.444;-4.464;2023-02-01T16:53:12;11.86;62.02
73833;SHT30;62179;48.444;-4.464;2023-02-01T16:55:40;11.85;61.89
73833;SHT30;62179;48.444;-4.464;2023-02-01T16:58:05;11.83;62.42
73833;SHT30;62179;48.444;-4.464;2023-02-01T17:00:30;11.81;62.30
73833;SHT30;62179;48.444;-4.464;2023-02-01T17:02:58;11.83;62.25
73833;SHT30;62179;48.444;-4.464;2023-02-01T17:05:24;11.81;62.20
73833;SHT30;62179;48.444;-4.464;2023-02-01T17:07:50;11.79;62.15
73833;SHT30;62179;48.444;-4.464;2023-02-01T17:10:22;11.77;62.11
73833;SHT30;62179;48.444;-4.464;2023-02-01T17:12:49;11.74;62.05
73833;SHT30;62179;48.444;-4.464;2023-02-01T17:15:14;11.74;62.57
73833;SHT30;62179;48.444;-4.464;2023-02-01T17:17:40;11.74;62.29
73833;SHT30;62179;48.444;-4.464;2023-02-01T17:20:18;11.71;62.76
73833;SHT30;62179;48.444;-4.464;2023-02-01T17:22:44;11.74;62.65
73833;SHT30;62179;48.444;-4.464;2023-02-01T17:25:17;11.67;62.82
73833;SHT30;62179;48.444;-4.464;2023-02-01T17:27:43;11.65;62.85
73833;SHT30;62179;48.444;-4.464;2023-02-01T17:30:12;11.64;62.74
73833;SHT30;62179;48.444;-4.464;2023-02-01T17:32:38;11.62;63.20
73833;SHT30;62179;48.444;-4.464;2023-02-01T17:35:05;11.61;63.17
73833;SHT30;62179;48.444;-4.464;2023-02-01T17:37:33;11.58;63.37
73833;SHT30;62179;48.444;-4.464;2023-02-01T17:40:00;11.60;63.78
73833;SHT30;62179;48.444;-4.464;2023-02-01T17:42:27;11.52;63.74
73833;SHT30;62179;48.444;-4.464;2023-02-01T17:47:44;11.55;64.01
73833;SHT30;62179;48.444;-4.464;2023-02-01T17:50:11;11.52;64.39
73833;SHT30;62179;48.444;-4.464;2023-02-01T17:52:36;11.54;64.04
73833;SHT30;62179;48.444;-4.464;2023-02-01T17:55:02;11.52;64.00
73833;SHT30;62179;48.444;-4.464;2023-02-01T17:57:29;11.48;64.47
73833;SHT30;62179;48.444;-4.464;2023-02-01T17:59:55;11.47;64.92
73833;SHT30;62179;48.444;-4.464;2023-02-01T18:02:22;11.45;64.34
73833;SHT30;62179;48.444;-4.464;2023-02-01T18:04:48;11.41;64.80
73833;SHT30;62179;48.444;-4.464;2023-02-01T18:07:15;11.41;64.65
73833;SHT30;62179;48.444;-4.464;2023-02-01T18:09:40;11.41;64.52
73833;SHT30;62179;48.444;-4.464;2023-02-01T18:12:16;11.41;64.55
73833;SHT30;62179;48.444;-4.464;2023-02-01T18:14:42;11.38;64.31
73833;SHT30;62179;48.444;-4.464;2023-02-01T18:17:08;11.37;64.78
73833;SHT30;62179;48.444;-4.464;2023-02-01T18:19:33;11.35;65.03
73833;SHT30;62179;48.444;-4.464;2023-02-01T18:22:01;11.31;65.82
73833;SHT30;62179;48.444;-4.464;2023-02-01T18:24:26;11.32;65.53
73833;SHT30;62179;48.444;-4.464;2023-02-01T18:26:52;11.31;65.38
73833;SHT30;62179;48.444;-4.464;2023-02-01T18:29:17;11.30;65.62
73833;SHT30;62179;48.444;-4.464;2023-02-01T18:31:47;11.31;65.96
73833;SHT30;62179;48.444;-4.464;2023-02-01T18:34:15;11.27;65.64
73833;SHT30;62179;48.444;-4.464;2023-02-01T18:36:48;11.26;66.58
73833;SHT30;62179;48.444;-4.464;2023-02-01T18:39:14;11.23;65.81
73833;SHT30;62179;48.444;-4.464;2023-02-01T18:41:39;11.19;65.91
73833;SHT30;62179;48.444;-4.464;2023-02-01T18:44:05;11.13;65.48
73833;SHT30;62179;48.444;-4.464;2023-02-01T18:46:31;11.11;65.98
73833;SHT30;62179;48.444;-4.464;2023-02-01T18:48:56;11.06;66.60
73833;SHT30;62179;48.444;-4.464;2023-02-01T18:51:22;11.06;66.48
73833;SHT30;62179;48.444;-4.464;2023-02-01T18:53:49;11.04;66.07
73833;SHT30;62179;48.444;-4.464;2023-02-01T18:56:16;11.00;66.00
73833;SHT30;62179;48.444;-4.464;2023-02-01T18:58:45;10.97;65.91
73833;SHT30;62179;48.444;-4.464;2023-02-01T19:01:16;10.97;65.63
73833;SHT30;62179;48.444;-4.464;2023-02-01T19:03:42;10.95;65.93
73833;SHT30;62179;48.444;-4.464;2023-02-01T19:06:07;10.95;66.54
73833;SHT30;62179;48.444;-4.464;2023-02-01T19:08:33;10.96;66.29
73833;SHT30;62179;48.444;-4.464;2023-02-01T19:10:59;10.97;66.87
73833;SHT30;62179;48.444;-4.464;2023-02-01T19:13:25;10.96;66.63
73833;SHT30;62179;48.444;-4.464;2023-02-01T19:15:55;10.93;67.16
73833;SHT30;62179;48.444;-4.464;2023-02-01T19:18:20;10.93;67.24
73833;SHT30;62179;48.444;-4.464;2023-02-01T19:20:47;10.90;67.16
73833;SHT30;62179;48.444;-4.464;2023-02-01T19:23:15;10.89;67.29
73833;SHT30;62179;48.444;-4.464;2023-02-01T19:25:44;10.90;67.01
73833;SHT30;62179;48.444;-4.464;2023-02-01T19:28:10;10.88;67.45
73833;SHT30;62179;48.444;-4.464;2023-02-01T19:30:35;10.86;67.45
73833;SHT30;62179;48.444;-4.464;2023-02-01T19:33:01;10.82;67.75
73833;SHT30;62179;48.444;-4.464;2023-02-01T19:35:29;10.79;67.39
73833;SHT30;62179;48.444;-4.464;2023-02-01T19:37:54;10.73;67.43
73833;SHT30;62179;48.444;-4.464;2023-02-01T19:40:20;10.69;67.57
73833;SHT30;62179;48.444;-4.464;2023-02-01T19:42:46;10.69;66.94
73833;SHT30;62179;48.444;-4.464;2023-02-01T19:45:13;10.65;66.61
73833;SHT30;62179;48.444;-4.464;2023-02-01T19:47:38;10.65;66.22
73833;SHT30;62179;48.444;-4.464;2023-02-01T19:50:05;10.62;66.47
73833;SHT30;62179;48.444;-4.464;2023-02-01T19:52:34;10.62;66.86
73833;SHT30;62179;48.444;-4.464;2023-02-01T19:55:00;10.61;65.80
73833;SHT30;62179;48.444;-4.464;2023-02-01T19:57:27;10.58;65.79
73833;SHT30;62179;48.444;-4.464;2023-02-01T19:59:53;10.58;65.42
73833;SHT30;62179;48.444;-4.464;2023-02-01T20:02:18;10.53;65.28
73833;SHT30;62179;48.444;-4.464;2023-02-01T20:04:44;10.52;65.22
73833;SHT30;62179;48.444;-4.464;2023-02-01T20:07:09;10.49;64.93
73833;SHT30;62179;48.444;-4.464;2023-02-01T20:09:39;10.48;65.27
73833;SHT30;62179;48.444;-4.464;2023-02-01T20:12:08;10.44;65.46
73833;SHT30;62179;48.444;-4.464;2023-02-01T20:14:36;10.45;65.65
73833;SHT30;62179;48.444;-4.464;2023-02-01T20:17:01;10.48;65.05
73833;SHT30;62179;48.444;-4.464;2023-02-01T20:19:27;10.45;65.97
73833;SHT30;62179;48.444;-4.464;2023-02-01T20:21:55;10.49;65.60
73833;SHT30;62179;48.444;-4.464;2023-02-01T20:24:21;10.52;65.97
73833;SHT30;62179;48.444;-4.464;2023-02-01T20:26:46;10.55;65.72
73833;SHT30;62179;48.444;-4.464;2023-02-01T20:29:14;10.55;65.72
73833;SHT30;62179;48.444;-4.464;2023-02-01T20:31:40;10.52;66.30
73833;SHT30;62179;48.444;-4.464;2023-02-01T20:34:05;10.58;66.26
73833;SHT30;62179;48.444;-4.464;2023-02-01T20:36:32;10.53;65.79
73833;SHT30;62179;48.444;-4.464;2023-02-01T20:38:58;10.56;65.28
73833;SHT30;62179;48.444;-4.464;2023-02-01T20:41:24;10.58;64.93
73833;SHT30;62179;48.444;-4.464;2023-02-01T20:43:51;10.59;64.00
73833;SHT30;62179;48.444;-4.464;2023-02-01T20:46:25;10.61;65.17
73833;SHT30;62179;48.444;-4.464;2023-02-01T20:48:51;10.61;65.28
73833;SHT30;62179;48.444;-4.464;2023-02-01T20:51:18;10.62;64.58
73833;SHT30;62179;48.444;-4.464;2023-02-01T20:53:45;10.62;65.01
73833;SHT30;62179;48.444;-4.464;2023-02-01T20:56:22;10.66;64.28
73833;SHT30;62179;48.444;-4.464;2023-02-01T20:58:47;10.63;64.19
73833;SHT30;62179;48.444;-4.464;2023-02-01T21:01:13;10.63;64.40
73833;SHT30;62179;48.444;-4.464;2023-02-01T21:03:43;10.68;64.45
73833;SHT30;62179;48.444;-4.464;2023-02-01T21:06:12;10.66;63.92
73833;SHT30;62179;48.444;-4.464;2023-02-01T21:08:38;10.69;63.82
73833;SHT30;62179;48.444;-4.464;2023-02-01T21:11:10;10.71;63.91
73833;SHT30;62179;48.444;-4.464;2023-02-01T21:13:41;10.75;63.41
73833;SHT30;62179;48.444;-4.464;2023-02-01T21:16:11;10.69;63.55
73833;SHT30;62179;48.444;-4.464;2023-02-01T21:18:38;10.72;64.18
